createdAt,value
2023-02-26T00:01:26.206Z,96899.38
2023-02-26T00:03:55.902Z,96888.56
2023-02-26T00:06:24.297Z,96891.81
2023-02-26T00:08:51.673Z,96891.38
2023-02-26T00:11:19.149Z,96884.91
2023-02-26T00:13:46.462Z,96883.66
2023-02-26T00:16:43.904Z,96891.28
2023-02-26T00:19:12.446Z,96890.28
2023-02-26T00:21:39.630Z,96891.81
2023-02-26T00:24:06.895Z,96897.81
2023-02-26T00:26:35.531Z,96915.69
2023-02-26T00:29:04.085Z,96914.06
2023-02-26T00:31:31.522Z,96908.59
2023-02-26T00:33:59.039Z,96916.25
2023-02-26T00:36:45.196Z,96916.19
2023-02-26T00:39:33.936Z,96906.00
2023-02-26T00:42:01.124Z,96908.50
2023-02-26T00:44:28.332Z,96905.66
2023-02-26T00:47:13.966Z,96913.81
2023-02-26T00:50:09.827Z,96915.63
2023-02-26T00:52:44.274Z,96913.56
2023-02-26T00:55:11.353Z,96903.63
2023-02-26T00:57:38.360Z,96916.97
2023-02-26T01:00:08.143Z,96904.09
2023-02-26T01:02:36.964Z,96906.38
2023-02-26T01:05:04.779Z,96900.91
2023-02-26T01:07:40.429Z,96899.56
2023-02-26T01:10:08.381Z,96896.53
2023-02-26T01:12:35.844Z,96888.38
2023-02-26T01:15:04.556Z,96896.91
2023-02-26T01:17:41.173Z,96889.63
2023-02-26T01:20:21.734Z,96879.13
2023-02-26T01:22:51.624Z,96875.41
2023-02-26T01:25:24.922Z,96873.78
2023-02-26T01:27:52.808Z,96874.56
2023-02-26T01:30:20.686Z,96875.84
2023-02-26T01:33:22.018Z,96873.28
2023-02-26T01:35:53.839Z,96869.75
2023-02-26T01:38:28.503Z,96878.84
2023-02-26T01:41:04.889Z,96881.31
2023-02-26T01:43:39.627Z,96879.03
2023-02-26T01:46:18.252Z,96884.91
2023-02-26T01:48:52.338Z,96893.19
2023-02-26T01:51:40.091Z,96891.00
2023-02-26T01:54:07.308Z,96888.66
2023-02-26T01:56:34.665Z,96888.19
2023-02-26T01:59:06.047Z,96905.19
2023-02-26T02:01:34.084Z,96905.91
2023-02-26T02:04:01.148Z,96896.00
2023-02-26T02:06:29.896Z,96906.94
2023-02-26T02:08:57.014Z,96907.56
2023-02-26T02:11:24.542Z,96908.75
2023-02-26T02:14:41.918Z,96914.72
2023-02-26T02:17:33.146Z,96920.56
2023-02-26T02:20:34.092Z,96924.72
2023-02-26T02:23:11.983Z,96928.16
2023-02-26T02:25:48.088Z,96931.16
2023-02-26T02:28:24.125Z,96933.06
2023-02-26T02:31:13.943Z,96937.44
2023-02-26T02:34:17.338Z,96941.53
2023-02-26T02:36:53.371Z,96936.22
2023-02-26T02:39:27.915Z,96952.16
2023-02-26T02:42:27.559Z,96961.88
2023-02-26T02:45:00.973Z,96948.25
2023-02-26T02:47:31.107Z,96954.44
2023-02-26T02:50:13.629Z,96960.53
2023-02-26T02:52:50.346Z,96955.84
2023-02-26T02:55:38.642Z,96959.06
2023-02-26T02:58:11.713Z,96960.53
2023-02-26T03:00:42.761Z,96976.88
2023-02-26T03:03:25.066Z,96980.25
2023-02-26T03:05:52.387Z,96973.97
2023-02-26T03:08:25.447Z,96981.56
2023-02-26T03:10:52.609Z,96980.84
2023-02-26T03:13:23.649Z,96996.84
2023-02-26T03:16:21.400Z,96999.84
2023-02-26T03:19:00.737Z,96996.03
2023-02-26T03:21:49.500Z,97002.19
2023-02-26T03:24:55.550Z,97000.94
2023-02-26T03:27:49.554Z,97015.47
2023-02-26T03:30:40.600Z,97009.59
2023-02-26T03:33:16.726Z,97010.56
2023-02-26T03:35:55.302Z,97024.09
2023-02-26T03:38:51.829Z,97012.13
2023-02-26T03:41:36.137Z,97022.56
2023-02-26T03:44:09.936Z,97016.31
2023-02-26T03:46:44.883Z,97017.66
2023-02-26T03:49:27.178Z,97021.66
2023-02-26T03:51:55.023Z,97031.56
2023-02-26T03:55:04.094Z,97042.00
2023-02-26T03:57:50.138Z,97047.66
2023-02-26T04:00:38.187Z,97041.00
2023-02-26T04:03:14.638Z,97038.56
2023-02-26T04:05:45.102Z,97052.63
2023-02-26T04:08:12.193Z,97046.09
2023-02-26T04:10:55.869Z,97051.19
2023-02-26T04:13:23.762Z,97054.94
2023-02-26T04:15:51.274Z,97053.03
2023-02-26T04:18:18.347Z,97057.22
2023-02-26T04:20:45.245Z,97051.81
2023-02-26T04:23:12.283Z,97069.00
2023-02-26T04:25:39.985Z,97065.19
2023-02-26T04:28:07.227Z,97066.19
2023-02-26T04:30:34.346Z,97068.28
2023-02-26T04:33:03.045Z,97064.66
2023-02-26T04:35:30.239Z,97068.25
2023-02-26T04:37:57.772Z,97064.03
2023-02-26T04:40:25.172Z,97069.75
2023-02-26T04:42:52.307Z,97072.38
2023-02-26T04:45:23.914Z,97057.38
2023-02-26T04:47:51.089Z,97064.50
2023-02-26T04:50:18.153Z,97077.91
2023-02-26T04:52:47.940Z,97078.28
2023-02-26T04:55:14.954Z,97075.44
2023-02-26T04:57:41.903Z,97080.25
2023-02-26T05:00:09.511Z,97074.63
2023-02-26T05:02:38.851Z,97087.88
2023-02-26T05:05:05.924Z,97084.09
2023-02-26T05:07:33.325Z,97089.44
2023-02-26T05:10:00.228Z,97096.94
2023-02-26T05:12:27.285Z,97100.19
2023-02-26T05:14:54.233Z,97101.19
2023-02-26T05:17:21.155Z,97115.09
2023-02-26T05:19:48.176Z,97119.91
2023-02-26T05:22:15.940Z,97116.22
2023-02-26T05:24:43.927Z,97124.41
2023-02-26T05:27:11.014Z,97115.81
2023-02-26T05:29:45.028Z,97115.09
2023-02-26T05:32:14.244Z,97122.03
2023-02-26T05:34:41.216Z,97129.91
2023-02-26T05:37:08.089Z,97121.66
2023-02-26T05:39:35.076Z,97131.31
2023-02-26T05:42:02.003Z,97135.75
2023-02-26T05:44:29.139Z,97141.31
2023-02-26T05:46:56.165Z,97139.66
2023-02-26T05:49:23.099Z,97132.66
2023-02-26T05:51:50.059Z,97136.47
2023-02-26T05:54:17.047Z,97145.75
2023-02-26T05:56:44.121Z,97133.38
2023-02-26T05:59:11.112Z,97146.38
2023-02-26T06:01:38.245Z,97147.03
2023-02-26T06:04:06.581Z,97141.38
2023-02-26T06:06:33.927Z,97145.66
2023-02-26T06:09:02.420Z,97150.03
2023-02-26T06:11:34.065Z,97156.09
2023-02-26T06:14:01.593Z,97146.78
2023-02-26T06:16:28.886Z,97157.78
2023-02-26T06:18:55.986Z,97162.13
2023-02-26T06:21:22.939Z,97165.88
2023-02-26T06:23:49.993Z,97168.31
2023-02-26T06:26:16.917Z,97165.03
2023-02-26T06:28:43.830Z,97174.50
2023-02-26T06:31:10.753Z,97172.88
2023-02-26T06:33:37.679Z,97173.94
2023-02-26T06:36:04.940Z,97171.31
2023-02-26T06:38:31.804Z,97192.97
2023-02-26T06:40:58.877Z,97190.16
2023-02-26T06:43:26.164Z,97185.88
2023-02-26T06:45:53.143Z,97191.16
2023-02-26T06:48:20.278Z,97198.81
2023-02-26T06:50:47.217Z,97181.22
2023-02-26T06:53:14.175Z,97180.13
2023-02-26T06:55:46.095Z,97172.84
2023-02-26T06:58:14.104Z,97189.06
2023-02-26T07:00:41.636Z,97177.50
2023-02-26T07:03:12.954Z,97191.78
2023-02-26T07:05:39.892Z,97192.25
2023-02-26T07:08:06.865Z,97187.88
2023-02-26T07:10:35.486Z,97197.53
2023-02-26T07:13:03.193Z,97201.53
2023-02-26T07:15:30.553Z,97197.34
2023-02-26T07:17:57.479Z,97199.06
2023-02-26T07:20:24.429Z,97199.34
2023-02-26T07:22:51.353Z,97183.22
2023-02-26T07:25:18.625Z,97184.69
2023-02-26T07:27:45.521Z,97177.94
2023-02-26T07:30:13.023Z,97190.31
2023-02-26T07:32:40.107Z,97198.72
2023-02-26T07:35:07.315Z,97192.34
2023-02-26T07:37:34.225Z,97178.41
2023-02-26T07:40:01.204Z,97176.31
2023-02-26T07:42:28.122Z,97177.94
2023-02-26T07:44:55.078Z,97171.94
2023-02-26T07:47:22.059Z,97176.47
2023-02-26T07:49:49.099Z,97183.97
2023-02-26T07:52:16.708Z,97179.75
2023-02-26T07:54:43.899Z,97181.50
2023-02-26T07:57:10.992Z,97184.41
2023-02-26T07:59:38.004Z,97176.47
2023-02-26T08:02:07.071Z,97178.84
2023-02-26T08:04:34.233Z,97174.06
2023-02-26T08:07:01.793Z,97171.66
2023-02-26T08:09:29.362Z,97161.28
2023-02-26T08:11:56.560Z,97177.28
2023-02-26T08:14:23.631Z,97168.59
2023-02-26T08:16:50.616Z,97177.00
2023-02-26T08:19:18.438Z,97179.28
2023-02-26T08:21:45.342Z,97186.25
2023-02-26T08:24:12.815Z,97174.75
2023-02-26T08:26:39.833Z,97162.94
2023-02-26T08:29:07.527Z,97175.34
2023-02-26T08:31:35.611Z,97176.63
2023-02-26T08:34:02.694Z,97182.66
2023-02-26T08:36:30.472Z,97186.84
2023-02-26T08:38:57.613Z,97193.34
2023-02-26T08:41:27.686Z,97185.28
2023-02-26T08:43:54.831Z,97172.59
2023-02-26T08:46:22.036Z,97172.50
2023-02-26T08:48:49.042Z,97171.38
2023-02-26T08:51:16.009Z,97168.09
2023-02-26T08:53:45.470Z,97171.97
2023-02-26T08:56:12.433Z,97168.69
2023-02-26T08:58:39.914Z,97160.63
2023-02-26T09:01:06.911Z,97173.69
2023-02-26T09:03:33.857Z,97172.06
2023-02-26T09:06:00.879Z,97183.25
2023-02-26T09:08:27.828Z,97172.31
2023-02-26T09:10:54.769Z,97170.69
2023-02-26T09:13:21.700Z,97174.81
2023-02-26T09:15:49.830Z,97173.78
2023-02-26T09:18:16.853Z,97191.88
2023-02-26T09:20:45.136Z,97196.06
2023-02-26T09:23:12.993Z,97180.81
2023-02-26T09:25:40.104Z,97202.03
2023-02-26T09:28:07.099Z,97196.75
2023-02-26T09:30:34.202Z,97203.09
2023-02-26T09:33:01.154Z,97202.25
2023-02-26T09:35:28.355Z,97209.22
2023-02-26T09:37:55.276Z,97200.63
2023-02-26T09:40:25.910Z,97214.69
2023-02-26T09:43:17.214Z,97211.03
2023-02-26T10:18:01.317Z,97180.25
2023-02-26T10:20:39.882Z,97178.09
2023-02-26T10:23:18.112Z,97192.00
2023-02-26T10:25:50.023Z,97183.91
2023-02-26T10:28:35.256Z,97187.97
2023-02-26T10:31:17.313Z,97188.59
2023-02-26T10:33:50.892Z,97171.25
2023-02-26T10:36:25.182Z,97181.84
2023-02-26T10:38:59.459Z,97162.28
2023-02-26T10:41:30.602Z,97168.75
2023-02-26T10:44:24.408Z,97154.09
2023-02-26T10:47:28.239Z,97152.25
2023-02-26T10:50:13.611Z,97153.88
2023-02-26T10:52:43.728Z,97157.78
2023-02-26T10:55:16.321Z,97153.06
2023-02-26T10:57:55.102Z,97147.94
2023-02-26T11:00:22.928Z,97136.75
2023-02-26T11:02:53.539Z,97154.31
2023-02-26T11:05:28.156Z,97144.41
2023-02-26T11:08:00.370Z,97143.06
2023-02-26T11:10:40.633Z,97148.97
2023-02-26T11:13:07.798Z,97129.19
2023-02-26T11:15:34.777Z,97142.16
2023-02-26T11:18:02.404Z,97139.94
2023-02-26T11:20:37.660Z,97138.91
2023-02-26T11:23:11.447Z,97138.53
2023-02-26T11:25:39.480Z,97150.41
2023-02-26T11:28:19.997Z,97156.84
2023-02-26T11:30:49.301Z,97162.84
2023-02-26T11:33:24.547Z,97166.63
2023-02-26T11:35:52.598Z,97184.22
2023-02-26T11:38:25.758Z,97177.31
2023-02-26T11:40:58.356Z,97173.25
2023-02-26T11:43:33.895Z,97170.22
2023-02-26T11:46:02.995Z,97185.09
2023-02-26T11:48:39.489Z,97183.47
2023-02-26T11:51:07.570Z,97170.97
2023-02-26T11:53:43.107Z,97161.19
2023-02-26T11:56:16.033Z,97172.81
2023-02-26T11:58:46.066Z,97171.63
2023-02-26T12:01:16.826Z,97163.47
2023-02-26T12:03:47.958Z,97151.22
2023-02-26T12:06:24.926Z,97163.25
2023-02-26T12:08:53.554Z,97159.56
2023-02-26T12:11:50.453Z,97151.22
2023-02-26T12:14:39.391Z,97152.41
2023-02-26T12:17:16.305Z,97161.84
2023-02-26T12:20:15.294Z,97161.41
2023-02-26T12:23:01.090Z,97155.06
2023-02-26T12:25:49.575Z,97164.47
2023-02-26T12:28:44.395Z,97177.31
2023-02-26T12:31:36.698Z,97168.97
2023-02-26T12:34:15.581Z,97168.38
2023-02-26T12:36:49.866Z,97178.09
2023-02-26T12:39:40.721Z,97177.63
2023-02-26T12:42:47.487Z,97178.06
2023-02-26T12:45:36.133Z,97187.63
2023-02-26T12:48:14.995Z,97174.88
2023-02-26T12:51:09.740Z,97187.09
2023-02-26T12:53:39.287Z,97168.94
2023-02-26T12:56:24.360Z,97178.94
2023-02-26T12:59:18.238Z,97190.75
2023-02-26T13:02:13.623Z,97190.97
2023-02-26T13:04:52.425Z,97192.44
2023-02-26T13:07:50.062Z,97196.38
2023-02-26T13:10:35.130Z,97191.94
2023-02-26T13:13:28.521Z,97191.44
2023-02-26T13:16:04.388Z,97185.53
2023-02-26T13:18:48.853Z,97177.72
2023-02-26T13:21:33.545Z,97184.84
2023-02-26T13:24:11.622Z,97182.00
2023-02-26T13:26:39.099Z,97176.78
2023-02-26T13:29:17.587Z,97182.84
2023-02-26T13:31:59.219Z,97189.75
2023-02-26T13:34:35.389Z,97189.75
2023-02-26T13:37:03.903Z,97185.88
2023-02-26T13:39:41.125Z,97186.69
2023-02-26T13:42:35.692Z,97191.56
2023-02-26T13:45:36.930Z,97187.91
2023-02-26T13:48:41.694Z,97203.06
2023-02-26T13:51:29.733Z,97190.94
2023-02-26T13:54:04.614Z,97204.50
2023-02-26T13:56:31.536Z,97200.22
2023-02-26T13:59:15.139Z,97207.50
2023-02-26T14:01:47.553Z,97203.81
2023-02-26T14:04:20.277Z,97201.56
2023-02-26T14:06:59.923Z,97200.88
2023-02-26T14:09:36.612Z,97217.22
2023-02-26T14:12:18.343Z,97214.75
2023-02-26T14:15:13.895Z,97213.09
2023-02-26T14:17:49.244Z,97211.31
2023-02-26T14:20:26.740Z,97196.16
2023-02-26T14:23:06.463Z,97200.75
2023-02-26T14:25:37.816Z,97213.72
2023-02-26T14:28:33.794Z,97210.47
2023-02-26T14:31:04.411Z,97206.34
2023-02-26T14:33:37.975Z,97206.91
2023-02-26T14:36:08.423Z,97207.97
2023-02-26T14:38:39.570Z,97212.22
2023-02-26T14:41:18.950Z,97211.84
2023-02-26T14:44:21.044Z,97216.06
2023-02-26T14:46:49.815Z,97208.34
2023-02-26T14:49:27.490Z,97219.78
2023-02-26T14:52:03.925Z,97223.16
2023-02-26T14:54:42.843Z,97231.22
2023-02-26T14:57:28.243Z,97238.19
2023-02-26T15:00:19.129Z,97246.94
2023-02-26T15:03:13.658Z,97251.22
2023-02-26T15:06:04.410Z,97236.16
2023-02-26T15:08:49.420Z,97238.56
2023-02-26T15:11:56.790Z,97244.97
2023-02-26T15:14:43.713Z,97231.53
2023-02-26T15:17:34.295Z,97248.91
2023-02-26T15:20:10.055Z,97255.66
2023-02-26T15:22:36.901Z,97256.56
2023-02-26T15:25:11.965Z,97260.06
2023-02-26T15:27:39.212Z,97253.63
2023-02-26T15:30:06.962Z,97275.00
2023-02-26T15:32:38.138Z,97284.00
2023-02-26T15:35:16.521Z,97292.56
2023-02-26T15:37:43.650Z,97279.47
2023-02-26T15:40:14.537Z,97285.72
2023-02-26T15:42:45.377Z,97280.06
2023-02-26T15:45:33.627Z,97285.50
2023-02-26T15:48:25.272Z,97288.28
2023-02-26T15:50:59.354Z,97290.22
2023-02-26T15:53:35.856Z,97284.91
2023-02-26T15:56:06.166Z,97276.91
2023-02-26T15:58:40.960Z,97284.34
2023-02-26T16:01:08.073Z,97286.03
2023-02-26T16:03:37.527Z,97281.31
2023-02-26T16:06:07.082Z,97271.06
2023-02-26T16:08:34.247Z,97278.53
2023-02-26T16:11:02.284Z,97285.03
2023-02-26T16:13:33.048Z,97283.41
2023-02-26T16:16:12.049Z,97285.59
2023-02-26T16:18:41.438Z,97285.03
2023-02-26T16:21:12.748Z,97272.75
2023-02-26T16:23:45.362Z,97276.16
2023-02-26T16:26:21.631Z,97286.13
2023-02-26T16:28:54.112Z,97288.69
2023-02-26T16:31:25.518Z,97300.84
2023-02-26T16:33:59.978Z,97308.56
2023-02-26T16:36:31.661Z,97307.50
2023-02-26T16:39:27.815Z,97297.94
2023-02-26T16:42:37.142Z,97301.75
2023-02-26T16:45:30.239Z,97303.47
2023-02-26T16:47:58.868Z,97318.63
2023-02-26T16:50:29.255Z,97317.00
2023-02-26T16:53:06.343Z,97341.41
2023-02-26T16:55:36.880Z,97343.19
2023-02-26T16:58:07.747Z,97354.84
2023-02-26T17:00:37.589Z,97362.03
2023-02-26T17:03:18.573Z,97339.78
2023-02-26T17:06:02.293Z,97355.59
2023-02-26T17:08:52.512Z,97347.59
2023-02-26T17:11:28.444Z,97355.13
2023-02-26T17:14:22.607Z,97353.50
2023-02-26T17:16:51.036Z,97345.06
2023-02-26T17:19:19.130Z,97346.47
2023-02-26T17:22:00.485Z,97349.94
2023-02-26T17:24:33.785Z,97346.97
2023-02-26T17:27:02.989Z,97360.59
2023-02-26T17:29:42.181Z,97376.88
2023-02-26T17:32:20.614Z,97382.81
2023-02-26T17:34:47.749Z,97405.91
2023-02-26T17:37:15.632Z,97416.47
2023-02-26T17:39:43.765Z,97416.38
2023-02-26T17:42:21.893Z,97416.44
2023-02-26T17:44:49.794Z,97422.91
2023-02-26T17:47:19.405Z,97421.03
2023-02-26T17:49:46.824Z,97412.81
2023-02-26T17:52:14.431Z,97408.25
2023-02-26T17:54:41.672Z,97405.41
2023-02-26T17:57:16.759Z,97412.53
2023-02-26T17:59:43.737Z,97408.13
2023-02-26T18:02:21.460Z,97406.06
2023-02-26T18:04:48.415Z,97400.44
2023-02-26T18:07:16.952Z,97396.41
2023-02-26T18:09:45.788Z,97408.53
2023-02-26T18:12:18.223Z,97390.69
2023-02-26T18:14:46.285Z,97408.63
2023-02-26T18:17:15.124Z,97408.72
2023-02-26T18:19:43.049Z,97412.09
2023-02-26T18:22:14.497Z,97423.38
2023-02-26T18:24:42.103Z,97408.19
2023-02-26T18:27:14.798Z,97418.75
2023-02-26T18:29:42.000Z,97409.94
2023-02-26T18:32:17.327Z,97405.06
2023-02-26T18:34:44.540Z,97416.00
2023-02-26T18:37:17.208Z,97425.06
2023-02-26T18:39:44.902Z,97431.25
2023-02-26T18:42:23.398Z,97418.38
2023-02-26T18:44:51.525Z,97438.53
2023-02-26T18:47:19.632Z,97438.00
2023-02-26T18:49:49.726Z,97448.81
2023-02-26T18:52:17.551Z,97453.41
2023-02-26T18:54:45.315Z,97449.22
2023-02-26T18:57:12.347Z,97445.56
2023-02-26T18:59:39.501Z,97446.94
2023-02-26T19:02:08.068Z,97447.38
2023-02-26T19:04:35.337Z,97450.03
2023-02-26T19:07:02.447Z,97437.00
2023-02-26T19:09:29.708Z,97448.50
2023-02-26T19:11:57.505Z,97439.47
2023-02-26T19:14:25.108Z,97443.22
2023-02-26T19:16:52.140Z,97429.72
2023-02-26T19:19:19.352Z,97443.66
2023-02-26T19:21:46.759Z,97455.59
2023-02-26T19:24:15.104Z,97452.00
2023-02-26T19:26:43.328Z,97455.78
2023-02-26T19:29:15.263Z,97457.16
2023-02-26T19:31:43.103Z,97460.06
2023-02-26T19:34:10.488Z,97450.41
2023-02-26T19:36:37.681Z,97460.31
2023-02-26T19:39:05.914Z,97436.53
2023-02-26T19:41:33.236Z,97434.44
2023-02-26T19:44:00.338Z,97443.09
2023-02-26T19:46:27.481Z,97451.31
2023-02-26T19:48:54.466Z,97457.25
2023-02-26T19:51:21.678Z,97443.09
2023-02-26T19:53:48.571Z,97466.97
2023-02-26T19:56:16.249Z,97468.47
2023-02-26T19:58:43.764Z,97461.44
2023-02-26T20:01:10.848Z,97464.38
2023-02-26T20:03:37.819Z,97465.28
2023-02-26T20:06:05.198Z,97476.19
2023-02-26T20:08:32.369Z,97487.13
2023-02-26T20:10:59.388Z,97495.06
2023-02-26T20:13:29.908Z,97484.94
2023-02-26T20:15:58.746Z,97488.97
2023-02-26T20:18:28.722Z,97487.88
2023-02-26T20:20:55.869Z,97488.16
2023-02-26T20:23:22.971Z,97479.94
2023-02-26T20:25:50.686Z,97489.69
2023-02-26T20:28:18.598Z,97501.34
2023-02-26T20:30:46.565Z,97506.47
2023-02-26T20:33:14.231Z,97505.94
2023-02-26T20:35:46.092Z,97519.06
2023-02-26T20:38:17.955Z,97509.13
2023-02-26T20:40:46.742Z,97516.69
2023-02-26T20:43:13.724Z,97522.06
2023-02-26T20:45:41.907Z,97518.59
2023-02-26T20:48:10.113Z,97519.03
2023-02-26T20:50:37.616Z,97508.38
2023-02-26T20:53:05.261Z,97508.22
2023-02-26T20:55:33.153Z,97504.56
2023-02-26T20:58:00.237Z,97503.63
2023-02-26T21:00:27.857Z,97506.66
2023-02-26T21:02:54.921Z,97507.47
2023-02-26T21:05:22.068Z,97522.78
2023-02-26T21:07:50.675Z,97526.88
2023-02-26T21:10:18.685Z,97513.56
2023-02-26T21:12:46.119Z,97502.75
2023-02-26T21:15:14.162Z,97493.25
2023-02-26T21:17:43.073Z,97499.81
2023-02-26T21:20:18.155Z,97495.06
2023-02-26T21:22:46.366Z,97502.09
2023-02-26T21:25:13.723Z,97496.16
2023-02-26T21:27:41.297Z,97489.50
2023-02-26T21:30:10.264Z,97478.50
2023-02-26T21:32:37.417Z,97490.88
2023-02-26T21:35:05.569Z,97508.44
2023-02-26T21:37:32.620Z,97497.25
2023-02-26T21:39:59.646Z,97511.47
2023-02-26T21:42:26.822Z,97514.41
2023-02-26T21:44:53.741Z,97515.31
2023-02-26T21:47:20.623Z,97515.94
2023-02-26T21:49:48.392Z,97510.00
2023-02-26T21:52:15.380Z,97509.38
2023-02-26T21:54:43.884Z,97501.25
2023-02-26T21:57:11.092Z,97497.50
2023-02-26T21:59:38.028Z,97483.84
2023-02-26T22:02:05.532Z,97498.31
2023-02-26T22:04:33.842Z,97492.94
2023-02-26T22:07:00.943Z,97497.56
2023-02-26T22:09:27.957Z,97495.28
2023-02-26T22:11:54.973Z,97491.78
2023-02-26T22:14:22.276Z,97478.72
2023-02-26T22:16:49.265Z,97482.91
2023-02-26T22:19:16.213Z,97480.16
2023-02-26T22:21:43.167Z,97469.66
2023-02-26T22:24:10.397Z,97468.09
2023-02-26T22:26:37.553Z,97469.84
2023-02-26T22:29:04.651Z,97467.41
2023-02-26T22:31:32.638Z,97479.59
2023-02-26T22:34:00.443Z,97494.28
2023-02-26T22:36:29.538Z,97501.31
2023-02-26T22:38:57.234Z,97509.69
2023-02-26T22:41:24.372Z,97507.06
2023-02-26T22:43:53.783Z,97503.22
2023-02-26T22:46:23.370Z,97506.09
2023-02-26T22:48:50.282Z,97497.66
2023-02-26T22:51:17.211Z,97501.41
2023-02-26T22:53:44.133Z,97486.41
2023-02-26T22:56:11.123Z,97488.72
2023-02-26T22:58:38.765Z,97497.34
2023-02-26T23:01:07.476Z,97473.22
2023-02-26T23:03:34.938Z,97496.84
2023-02-26T23:06:01.918Z,97487.81
2023-02-26T23:08:28.889Z,97486.34
2023-02-26T23:11:01.181Z,97489.16
2023-02-26T23:13:30.913Z,97484.97
2023-02-26T23:15:58.505Z,97494.19
2023-02-26T23:18:25.661Z,97496.19
2023-02-26T23:20:52.653Z,97484.72
2023-02-26T23:23:19.552Z,97494.13
2023-02-26T23:25:47.071Z,97498.56
2023-02-26T23:28:14.208Z,97488.72
2023-02-26T23:30:41.476Z,97477.78
2023-02-26T23:33:08.506Z,97488.53
2023-02-26T23:35:35.934Z,97479.06
2023-02-26T23:38:04.241Z,97492.09
2023-02-26T23:40:31.714Z,97491.16
2023-02-26T23:42:58.895Z,97508.44
2023-02-26T23:45:25.882Z,97516.16
2023-02-26T23:47:52.827Z,97515.53
2023-02-26T23:50:19.704Z,97512.72
2023-02-26T23:52:46.854Z,97528.13
2023-02-26T23:55:13.772Z,97535.72
2023-02-26T23:57:40.857Z,97545.72
